Time;durP1;ratioP1;P1;durP2;ratioP2;P2;SDS_P1;SDS_P2;PMS_P1;PMS_P2;Temp;Humidity;BMP_temperature;BMP_pressure;BME280_temperature;BME280_humidity;BME280_pressure;Samples;Min_cycle;Max_cycle;Signal;HPM_P1;HPM_P2
2021/05/12 00:04:29;;;;;;;34.65;20.48;;;;;;;12.54;83.46;99723.31;8834361;33;20190;-72
2021/05/12 00:09:33;;;;;;;34.35;20.52;;;;;;;12.53;82.83;99734.22;8833423;33;20131;-72
2021/05/12 00:14:36;;;;;;;34.25;20.05;;;;;;;12.43;82.96;99734.31;8833091;33;20177;-72
2021/05/12 00:19:41;;;;;;;34.85;19.67;;;;;;;12.33;82.82;99734.34;8833163;33;20413;-73
2021/05/12 00:24:44;;;;;;;36.72;20.23;;;;;;;12.26;83.18;99729.69;8833874;33;20185;-73
2021/05/12 00:29:47;;;;;;;35.40;19.95;;;;;;;12.13;83.56;99728.22;8833444;33;20956;-72
2021/05/12 00:34:49;;;;;;;42.50;20.83;;;;;;;12.15;83.34;99730.75;8833351;33;21474;-73
2021/05/12 00:39:53;;;;;;;39.25;20.02;;;;;;;11.89;83.41;99742.22;8832777;33;20171;-73
2021/05/12 00:44:56;;;;;;;38.60;19.58;;;;;;;11.76;83.71;99743.53;8833011;33;20189;-72
2021/05/12 00:49:59;;;;;;;38.45;20.80;;;;;;;11.80;83.39;99740.41;8832908;33;20542;-72
2021/05/12 00:55:04;;;;;;;37.38;20.08;;;;;;;11.86;83.19;99742.50;8833234;33;20239;-73
2021/05/12 01:00:10;;;;;;;35.47;19.10;;;;;;;11.92;83.09;99744.59;8832513;33;20433;-73
2021/05/12 01:05:23;;;;;;;37.78;19.10;;;;;;;11.95;83.24;99754.22;8833219;33;20235;-73
2021/05/12 01:10:26;;;;;;;35.15;19.27;;;;;;;11.92;82.89;99755.38;8832567;33;20207;-72
2021/05/12 01:15:29;;;;;;;36.85;19.42;;;;;;;11.94;83.13;99750.69;8806947;33;20154;-73
2021/05/12 01:20:32;;;;;;;34.50;19.92;;;;;;;11.83;83.15;99748.19;8823570;33;20861;-72
2021/05/12 01:25:35;;;;;;;36.92;19.35;;;;;;;11.88;83.19;99748.59;8833572;33;20190;-72
2021/05/12 01:30:38;;;;;;;32.30;17.95;;;;;;;11.86;83.05;99747.03;8837602;33;20245;-72
2021/05/12 01:35:41;;;;;;;33.72;16.80;;;;;;;11.73;83.77;99769.75;8837762;33;20808;-72
2021/05/12 01:40:45;;;;;;;31.23;16.17;;;;;;;11.58;83.89;99765.84;8837087;33;20188;-72
2021/05/12 01:45:49;;;;;;;28.35;15.98;;;;;;;11.80;83.47;99766.47;8836810;33;20268;-72
2021/05/12 01:50:52;;;;;;;29.70;16.38;;;;;;;11.59;83.75;99764.84;8837349;33;20279;-72
2021/05/12 01:55:55;;;;;;;31.83;16.50;;;;;;;11.77;83.60;99764.94;8836570;33;20197;-72
2021/05/12 02:00:59;;;;;;;35.20;17.48;;;;;;;11.67;83.67;99770.31;8868486;32;20169;-72
2021/05/12 02:06:02;;;;;;;35.17;18.42;;;;;;;11.62;83.65;99767.22;8896443;32;20253;-72
2021/05/12 02:11:07;;;;;;;41.53;19.52;;;;;;;11.71;83.02;99779.81;8896497;32;20188;-72
2021/05/12 02:16:09;;;;;;;41.08;20.17;;;;;;;11.81;83.19;99773.53;8896497;32;20181;-72
2021/05/12 02:21:12;;;;;;;43.55;20.90;;;;;;;11.84;82.85;99776.78;8896124;32;20182;-72
2021/05/12 02:26:15;;;;;;;36.08;18.80;;;;;;;11.72;82.92;99775.28;8895900;32;20435;-72
2021/05/12 02:31:18;;;;;;;36.58;19.73;;;;;;;11.54;82.50;99772.50;8895938;32;20189;-72
2021/05/12 02:36:21;;;;;;;32.72;17.63;;;;;;;11.72;82.43;99769.91;8870015;32;20432;-72
2021/05/12 02:41:24;;;;;;;40.00;20.25;;;;;;;11.54;82.48;99775.19;8895456;32;21529;-72
2021/05/12 02:46:27;;;;;;;37.37;19.63;;;;;;;11.42;82.66;99781.72;8895569;32;20440;-72
2021/05/12 02:51:29;;;;;;;35.47;19.08;;;;;;;11.36;82.33;99775.09;8895320;32;20539;-72
2021/05/12 02:56:33;;;;;;;32.42;17.35;;;;;;;11.25;82.60;99776.09;8869927;32;20153;-72
2021/05/12 03:01:36;;;;;;;35.10;16.88;;;;;;;11.42;82.00;99777.19;8895510;32;21040;-72
2021/05/12 03:06:39;;;;;;;38.95;18.80;;;;;;;11.57;81.80;99774.88;8896269;32;20895;-72
2021/05/12 03:11:43;;;;;;;37.92;18.10;;;;;;;11.16;82.49;99778.78;8894945;32;20146;-72
2021/05/12 03:16:45;;;;;;;37.13;18.75;;;;;;;11.46;81.62;99786.69;8895396;32;20331;-72
2021/05/12 03:21:49;;;;;;;38.80;18.27;;;;;;;11.48;81.54;99781.16;8868909;32;20413;-72
2021/05/12 03:26:53;;;;;;;37.95;17.52;;;;;;;11.24;81.52;99781.59;8894634;32;20692;-72
2021/05/12 03:31:56;;;;;;;33.53;17.35;;;;;;;11.28;81.95;99786.56;8894458;32;20185;-72
2021/05/12 03:36:59;;;;;;;34.50;18.13;;;;;;;11.46;80.99;99785.81;8894585;32;20838;-72
2021/05/12 03:42:03;;;;;;;36.13;18.35;;;;;;;11.45;81.25;99797.56;8869225;32;20784;-71
2021/05/12 03:47:06;;;;;;;35.33;18.33;;;;;;;11.59;81.04;99799.81;8894330;32;20208;-71
2021/05/12 03:52:10;;;;;;;34.65;17.00;;;;;;;11.55;81.13;99814.56;8893896;32;20142;-72
2021/05/12 03:57:13;;;;;;;33.88;18.38;;;;;;;11.68;81.16;99816.91;8893594;32;20231;-71
2021/05/12 04:02:16;;;;;;;35.35;17.48;;;;;;;11.67;80.99;99825.97;8894055;32;20865;-72
2021/05/12 04:07:19;;;;;;;37.53;19.52;;;;;;;11.63;81.21;99829.97;8894035;32;20420;-72
2021/05/12 04:12:22;;;;;;;37.55;20.92;;;;;;;11.26;81.72;99825.34;8867872;32;21040;-72
2021/05/12 04:17:26;;;;;;;38.05;21.42;;;;;;;11.20;81.86;99829.44;8868053;32;20557;-71
2021/05/12 04:22:29;;;;;;;39.47;20.05;;;;;;;11.26;81.10;99833.41;8893162;32;20983;-71
2021/05/12 04:27:32;;;;;;;37.78;22.20;;;;;;;11.52;80.67;99836.34;8867724;32;20181;-71
2021/05/12 04:32:35;;;;;;;35.90;20.10;;;;;;;11.04;81.47;99832.66;8893718;32;20122;-72
2021/05/12 04:37:37;;;;;;;34.22;20.33;;;;;;;11.31;80.72;99833.81;8893411;32;21502;-72
2021/05/12 04:42:41;;;;;;;31.50;17.67;;;;;;;11.03;80.73;99839.03;8893528;32;20153;-72
2021/05/12 04:47:54;;;;;;;37.95;19.65;;;;;;;11.20;80.62;99834.81;8892753;32;20142;-72
2021/05/12 04:52:58;;;;;;;32.33;17.88;;;;;;;11.04;80.55;99837.19;8893543;32;20145;-71
2021/05/12 04:58:01;;;;;;;31.75;18.10;;;;;;;11.47;80.07;99835.94;8893461;32;20186;-72
2021/05/12 05:03:06;;;;;;;32.40;17.08;;;;;;;11.55;79.25;99843.28;8900125;32;20232;-71
2021/05/12 05:08:10;;;;;;;32.55;15.52;;;;;;;11.42;79.35;99851.66;8899477;32;20756;-71
2021/05/12 05:13:13;;;;;;;30.35;16.75;;;;;;;11.36;79.03;99853.06;8898836;32;20180;-71
2021/05/12 05:18:16;;;;;;;28.25;16.13;;;;;;;11.21;79.21;99847.25;8898063;32;20474;-71
2021/05/12 05:23:18;;;;;;;28.67;16.48;;;;;;;11.28;79.57;99872.59;8897914;32;20187;-71
2021/05/12 05:28:22;;;;;;;30.52;17.17;;;;;;;11.49;79.20;99876.97;8897623;32;20177;-71
2021/05/12 05:33:24;;;;;;;28.45;15.98;;;;;;;11.54;78.98;99874.69;8897681;32;20221;-71
2021/05/12 05:38:45;;;;;;;32.47;17.23;;;;;;;11.52;78.24;99879.41;8897539;32;20173;-71
2021/05/12 05:44:07;;;;;;;32.00;17.30;;;;;;;11.69;79.12;99886.72;8897647;32;20205;-71
2021/05/12 05:49:28;;;;;;;32.83;17.75;;;;;;;11.90;78.03;99891.94;8896841;32;20181;-71
2021/05/12 05:54:49;;;;;;;34.70;19.08;;;;;;;11.62;77.24;99890.97;8898217;32;20188;-71
2021/05/12 06:00:13;;;;;;;32.45;17.30;;;;;;;11.71;77.26;99883.88;8846864;32;20412;-71
2021/05/12 06:05:19;;;;;;;33.13;16.98;;;;;;;11.85;76.86;99888.00;8837803;32;20431;-71
2021/05/12 06:10:40;;;;;;;28.92;16.33;;;;;;;11.77;76.80;99888.72;8836350;32;20223;-72
2021/05/12 06:16:03;;;;;;;29.10;15.88;;;;;;;12.05;76.26;99891.47;8837214;32;20557;-71
2021/05/12 06:21:25;;;;;;;30.02;15.35;;;;;;;11.90;75.30;99905.41;8836913;32;20181;-71
2021/05/12 06:26:49;;;;;;;25.20;14.77;;;;;;;12.44;76.32;99891.38;8836928;32;20240;-71
2021/05/12 06:32:11;;;;;;;27.55;15.43;;;;;;;12.29;74.68;99916.09;8835717;32;20186;-71
2021/05/12 06:37:32;;;;;;;26.17;15.07;;;;;;;12.10;73.70;99916.97;8896314;32;20184;-71
2021/05/12 06:42:53;;;;;;;31.17;16.63;;;;;;;12.19;74.45;99915.22;8898251;32;20137;-72
2021/05/12 06:47:56;;;;;;;33.08;17.05;;;;;;;12.02;75.88;99927.59;8894347;32;20185;-71
2021/05/12 06:52:59;;;;;;;34.03;16.67;;;;;;;12.13;75.88;99929.28;8896926;32;21646;-71
2021/05/12 06:58:02;;;;;;;31.42;18.60;;;;;;;11.81;74.82;99932.31;8895699;32;20138;-71
2021/05/12 07:03:05;;;;;;;28.42;15.82;;;;;;;12.29;76.93;99939.47;8896373;32;20185;-72
2021/05/12 07:08:08;;;;;;;34.28;18.58;;;;;;;12.30;75.21;99949.25;8895922;32;20138;-71
2021/05/12 07:13:10;;;;;;;35.53;17.25;;;;;;;12.33;73.52;99939.03;8896202;32;20594;-71
2021/05/12 07:18:14;;;;;;;34.13;18.73;;;;;;;12.43;72.22;99944.41;8894761;32;20869;-71
2021/05/12 07:23:20;;;;;;;30.20;17.55;;;;;;;13.33;75.14;99947.31;8896354;32;20435;-71
2021/05/12 07:28:24;;;;;;;29.83;16.17;;;;;;;13.06;68.35;99949.06;8894944;32;20847;-72
2021/05/12 07:33:28;;;;;;;22.67;15.10;;;;;;;13.26;70.39;99947.09;8894803;32;20188;-71
2021/05/12 07:38:30;;;;;;;24.73;15.65;;;;;;;13.25;69.73;99948.94;8894128;32;20830;-72
2021/05/12 07:43:33;;;;;;;30.45;16.58;;;;;;;13.28;69.29;99950.50;8868865;32;20756;-71
2021/05/12 07:48:36;;;;;;;25.13;14.55;;;;;;;13.28;69.09;99948.63;8894001;32;20445;-71
2021/05/12 07:53:39;;;;;;;21.02;13.57;;;;;;;14.05;68.35;99957.13;8892946;32;20323;-71
2021/05/12 07:58:42;;;;;;;24.75;13.82;;;;;;;14.29;70.31;99951.03;8867844;32;20188;-72
2021/05/12 08:03:46;;;;;;;21.25;12.02;;;;;;;14.63;68.63;99961.06;8894379;32;20184;-71
2021/05/12 08:08:48;;;;;;;19.70;11.32;;;;;;;14.43;65.12;99960.44;8893800;32;20177;-71
2021/05/12 08:13:51;;;;;;;16.75;11.00;;;;;;;14.05;65.89;99958.97;8868877;32;20192;-71
2021/05/12 08:18:54;;;;;;;19.38;10.85;;;;;;;14.83;65.74;99959.78;8895038;32;20428;-72
2021/05/12 08:23:57;;;;;;;18.90;11.05;;;;;;;13.98;62.38;99972.25;8894389;32;20199;-71
2021/05/12 08:29:03;;;;;;;16.02;9.90;;;;;;;14.15;61.56;99967.81;8895725;32;20149;-71
2021/05/12 08:34:07;;;;;;;20.63;10.40;;;;;;;14.96;60.73;99972.88;8898766;32;20887;-72
2021/05/12 08:39:10;;;;;;;19.20;10.52;;;;;;;15.04;61.71;99972.06;8895451;32;20243;-71
2021/05/12 08:44:14;;;;;;;16.98;9.55;;;;;;;15.13;59.22;99970.22;8894280;32;20146;-72
2021/05/12 08:49:20;;;;;;;15.60;8.60;;;;;;;15.04;55.65;99980.16;8893744;32;20254;-72
2021/05/12 08:54:23;;;;;;;12.75;7.45;;;;;;;15.32;56.94;99971.81;8893981;32;20593;-71
2021/05/12 08:59:26;;;;;;;15.00;7.85;;;;;;;15.82;54.82;99968.19;8893134;32;20192;-74
2021/05/12 09:04:30;;;;;;;14.63;8.63;;;;;;;16.44;52.69;99965.81;8892200;32;20154;-74
2021/05/12 09:09:32;;;;;;;12.07;7.28;;;;;;;17.34;54.71;99965.47;8891420;32;20272;-74
2021/05/12 09:14:36;;;;;;;12.85;7.35;;;;;;;18.31;56.49;99973.06;8891648;32;20154;-75
2021/05/12 09:19:40;;;;;;;11.77;6.88;;;;;;;18.96;50.16;99975.09;8891040;32;20327;-75
2021/05/12 09:24:43;;;;;;;12.68;7.45;;;;;;;17.76;48.98;99969.59;8892920;32;20757;-74
2021/05/12 09:29:45;;;;;;;10.02;6.45;;;;;;;16.90;51.89;99974.13;8892875;32;20228;-74
2021/05/12 09:34:56;;;;;;;11.55;5.97;;;;;;;18.33;50.52;99977.28;8893127;32;20316;-74
2021/05/12 09:40:01;;;;;;;9.30;5.72;;;;;;;18.79;46.18;99965.47;8892705;32;20531;-74
2021/05/12 09:45:16;;;;;;;8.45;5.20;;;;;;;18.29;45.67;99981.44;8892306;32;20686;-74
2021/05/12 09:50:24;;;;;;;8.85;4.60;;;;;;;;;;8898119;32;20592;-74
2021/05/12 09:55:34;;;;;;;8.18;5.10;;;;;;;18.07;45.25;99972.28;8853565;32;20178;-74
2021/05/12 10:00:38;;;;;;;7.30;4.93;;;;;;;18.70;45.46;99971.97;8836990;33;20192;-74
2021/05/12 10:05:53;;;;;;;6.20;4.55;;;;;;;18.29;44.71;99972.41;8837557;33;20181;-74
2021/05/12 10:10:57;;;;;;;6.25;4.70;;;;;;;18.62;44.39;99977.50;8872592;32;20610;-75
2021/05/12 10:16:01;;;;;;;8.73;4.88;;;;;;;17.48;45.67;99981.00;8897187;32;20169;-74
2021/05/12 10:21:06;;;;;;;7.97;5.45;;;;;;;17.39;47.18;99976.66;8896939;32;20268;-74
2021/05/12 10:26:09;;;;;;;5.88;4.25;;;;;;;17.33;46.19;99973.78;8897423;32;20192;-74
2021/05/12 10:31:13;;;;;;;7.80;4.60;;;;;;;18.00;45.88;99968.59;8896746;32;20238;-74
2021/05/12 10:36:16;;;;;;;7.43;4.50;;;;;;;18.42;45.18;99971.78;8896777;32;20189;-74
2021/05/12 10:41:46;;;;;;;6.53;4.40;;;;;;;20.73;40.34;99975.41;8896896;32;20138;-74
2021/05/12 10:47:04;;;;;;;9.00;4.50;;;;;;;21.18;40.87;99975.84;8897570;32;20704;-74
2021/05/12 10:52:09;;;;;;;7.90;5.60;;;;;;;21.42;40.51;99965.44;8896106;32;20185;-74
2021/05/12 10:57:46;;;;;;;7.25;4.80;;;;;;;20.79;39.90;99963.69;8896740;32;20172;-74
2021/05/12 11:03:01;;;;;;;6.15;4.53;;;;;;;21.44;39.81;99961.44;8895971;32;20218;-74
2021/05/12 11:08:15;;;;;;;7.95;5.28;;;;;;;20.74;41.12;99968.88;8896070;32;20198;-74
2021/05/12 11:13:21;;;;;;;6.03;4.13;;;;;;;19.37;43.06;99965.56;8895338;32;20181;-74
2021/05/12 11:18:51;;;;;;;7.30;4.95;;;;;;;19.82;42.11;99967.09;8893611;32;20631;-74
2021/05/12 11:24:14;;;;;;;6.18;4.20;;;;;;;19.91;40.20;99962.34;8897015;32;20693;-75
2021/05/12 11:34:38;;;;;;;4.88;3.53;;;;;;;19.01;41.91;99955.50;8895576;32;20180;-74
2021/05/12 11:39:42;;;;;;;10.25;4.25;;;;;;;18.70;42.50;99952.94;8895495;32;20592;-74
2021/05/12 11:44:45;;;;;;;10.50;4.32;;;;;;;19.27;41.39;99951.41;8895761;32;20621;-74
2021/05/12 11:49:49;;;;;;;5.43;4.20;;;;;;;20.42;40.98;99942.25;8895219;32;20185;-74
2021/05/12 11:54:52;;;;;;;7.25;4.20;;;;;;;21.16;39.39;99936.16;8894776;32;20217;-74
2021/05/12 12:00:00;;;;;;;5.75;4.15;;;;;;;20.51;38.70;99924.66;8894524;32;20652;-74
2021/05/12 12:05:07;;;;;;;5.07;3.63;;;;;;;19.55;42.12;99930.53;8889927;32;20511;-74
2021/05/12 12:10:14;;;;;;;6.07;4.53;;;;;;;19.72;40.56;99931.19;8894518;32;20145;-74
2021/05/12 12:15:18;;;;;;;6.28;3.92;;;;;;;19.39;42.93;99934.38;8895120;32;20483;-74
2021/05/12 12:20:30;;;;;;;4.93;4.05;;;;;;;19.14;40.42;99936.59;8894628;32;20438;-74
2021/05/12 12:25:42;;;;;;;4.80;4.25;;;;;;;18.04;42.18;99936.47;8894775;32;20607;-74
2021/05/12 12:30:44;;;;;;;5.85;4.38;;;;;;;17.40;45.42;99940.31;8868333;32;20189;-74
2021/05/12 12:36:03;;;;;;;8.80;6.13;;;;;;;17.36;45.55;99939.00;8894228;32;20190;-74
2021/05/12 12:41:06;;;;;;;5.80;5.03;;;;;;;17.96;44.55;99939.22;8893452;32;21725;-74
2021/05/12 12:46:09;;;;;;;6.25;4.28;;;;;;;18.56;43.38;99935.56;8893826;32;20670;-74
2021/05/12 12:51:12;;;;;;;5.97;5.18;;;;;;;18.44;42.15;99940.66;8892781;32;20173;-74
2021/05/12 12:56:16;;;;;;;6.90;4.95;;;;;;;18.63;43.47;99941.97;8892385;32;20272;-74
2021/05/12 13:01:32;;;;;;;7.80;4.85;;;;;;;18.48;43.64;99931.06;8884358;32;20701;-74
2021/05/12 13:06:36;;;;;;;6.63;5.10;;;;;;;17.89;44.22;99923.66;8832449;33;20188;-74
2021/05/12 13:11:51;;;;;;;7.97;5.60;;;;;;;18.60;43.42;99928.75;8832052;33;20154;-74
2021/05/12 13:17:04;;;;;;;8.02;4.90;;;;;;;18.95;42.13;99919.00;8832079;33;20145;-74
2021/05/12 13:22:10;;;;;;;8.27;5.38;;;;;;;20.15;42.27;99922.91;8846905;32;20142;-74
2021/05/12 13:27:13;;;;;;;8.38;5.10;;;;;;;21.04;39.47;99918.69;8897088;32;20203;-74
2021/05/12 13:32:16;;;;;;;8.02;5.65;;;;;;;22.01;39.38;99914.66;8894206;32;20567;-74
2021/05/12 13:37:19;;;;;;;7.90;5.70;;;;;;;22.60;35.77;99907.44;8896755;32;20212;-75
2021/05/12 13:42:22;;;;;;;6.63;5.72;;;;;;;21.95;36.35;99913.63;8897020;32;20184;-74
2021/05/12 13:47:26;;;;;;;8.75;6.53;;;;;;;21.16;36.40;99917.03;8897029;32;20729;-74
2021/05/12 13:52:34;;;;;;;8.05;5.55;;;;;;;20.40;38.72;99909.69;8896707;32;20213;-74
2021/05/12 13:57:54;;;;;;;7.82;5.90;;;;;;;20.64;38.57;99910.25;8871754;32;21031;-73
2021/05/12 14:02:57;;;;;;;9.00;6.38;;;;;;;21.19;38.95;99906.53;8897954;32;20125;-74
2021/05/12 14:08:00;;;;;;;9.77;6.25;;;;;;;20.88;39.42;99895.28;8897378;32;20188;-74
2021/05/12 14:13:12;;;;;;;5.80;5.20;;;;;;;21.31;38.66;99882.22;8897210;32;20484;-75
2021/05/12 14:18:15;;;;;;;9.55;5.63;;;;;;;21.72;39.27;99883.06;8896223;32;20157;-73
2021/05/12 14:23:18;;;;;;;5.60;4.90;;;;;;;21.26;36.73;99884.72;8895587;32;20192;-73
2021/05/12 14:28:29;;;;;;;6.40;4.72;;;;;;;19.16;38.71;99893.69;8894562;32;20185;-73
2021/05/12 14:33:33;;;;;;;7.05;4.30;;;;;;;19.72;39.30;99887.59;8893920;32;20227;-74
2021/05/12 14:38:36;;;;;;;8.63;5.43;;;;;;;19.02;39.73;99891.84;8894808;32;20200;-72
2021/05/12 14:43:40;;;;;;;5.65;4.35;;;;;;;18.83;41.31;99893.28;8900024;32;21725;-72
2021/05/12 14:48:45;;;;;;;6.60;3.90;;;;;;;19.07;41.38;99892.13;8897759;32;20189;-73
2021/05/12 14:53:53;;;;;;;6.43;4.15;;;;;;;18.39;41.28;99893.28;8895872;32;20197;-73
2021/05/12 14:59:42;;;;;;;6.88;4.38;;;;;;;18.40;41.76;99889.53;8871259;32;20188;-73
2021/05/12 15:05:12;;;;;;;5.28;4.20;;;;;;;18.61;42.20;99905.09;8896395;32;20213;-73
2021/05/12 15:10:15;;;;;;;6.53;4.28;;;;;;;18.14;43.77;99899.84;8895986;32;20192;-72
2021/05/12 15:15:19;;;;;;;6.57;4.10;;;;;;;18.65;43.13;99903.69;8897439;32;20213;-73
2021/05/12 15:20:21;;;;;;;5.90;4.22;;;;;;;18.40;43.14;99898.53;8896076;32;20673;-73
2021/05/12 15:25:24;;;;;;;6.22;4.03;;;;;;;18.62;43.73;99907.63;8896421;32;20193;-73
2021/05/12 15:30:28;;;;;;;6.10;4.10;;;;;;;17.97;44.57;99908.31;8895351;32;20705;-73
2021/05/12 15:35:31;;;;;;;6.72;4.80;;;;;;;17.43;47.00;99909.25;8894887;32;20157;-73
2021/05/12 15:40:34;;;;;;;13.30;5.78;;;;;;;14.94;60.90;99930.78;8894199;32;21192;-73
2021/05/12 15:45:38;;;;;;;11.90;6.85;;;;;;;13.42;65.97;99927.56;8893952;32;20589;-73
2021/05/12 15:50:43;;;;;;;11.70;7.90;;;;;;;12.67;70.32;99933.09;8893597;32;21656;-72
2021/05/12 15:55:47;;;;;;;13.90;8.35;;;;;;;12.44;74.00;99921.84;8893524;32;20217;-72
2021/05/12 16:00:51;;;;;;;13.68;8.90;;;;;;;12.41;74.21;99924.84;8893663;32;20189;-72
2021/05/12 16:05:54;;;;;;;13.30;9.00;;;;;;;12.51;75.56;99936.44;8894634;32;20134;-72
2021/05/12 16:10:57;;;;;;;14.13;9.50;;;;;;;12.40;75.31;99939.31;8894000;32;20215;-71
2021/05/12 16:16:03;;;;;;;11.88;9.25;;;;;;;12.40;74.78;99936.59;8894421;32;20266;-71
2021/05/12 16:21:08;;;;;;;14.95;9.60;;;;;;;12.48;73.64;99943.94;8858717;32;20150;-71
2021/05/12 16:26:11;;;;;;;15.23;9.07;;;;;;;12.49;74.91;99946.50;8833730;33;20190;-71
2021/05/12 16:31:15;;;;;;;14.93;9.82;;;;;;;12.62;74.68;99935.41;8842247;32;20183;-72
2021/05/12 16:36:18;;;;;;;15.40;10.10;;;;;;;12.55;75.17;99943.19;8889304;32;20216;-70
2021/05/12 16:41:21;;;;;;;14.13;10.18;;;;;;;12.58;75.24;99937.50;8894156;32;20188;-73
2021/05/12 16:46:24;;;;;;;13.75;9.60;;;;;;;12.45;72.86;99930.75;8864800;32;20185;-73
2021/05/12 16:51:28;;;;;;;13.82;8.93;;;;;;;12.26;73.37;99921.75;8893742;32;20142;-73
2021/05/12 16:56:31;;;;;;;14.68;9.32;;;;;;;12.09;73.46;99926.00;8881339;32;20185;-73
2021/05/12 17:01:35;;;;;;;13.13;9.70;;;;;;;12.07;74.13;99916.41;8860635;32;20196;-70
2021/05/12 17:06:39;;;;;;;12.48;9.55;;;;;;;11.91;73.40;99901.69;8838299;32;20265;-72
2021/05/12 17:11:48;;;;;;;13.82;9.18;;;;;;;12.09;73.81;99909.84;8840702;32;20236;-70
2021/05/12 17:16:52;;;;;;;14.30;8.85;;;;;;;12.26;72.44;99904.72;8834583;32;20686;-72
2021/05/12 17:21:56;;;;;;;12.95;9.38;;;;;;;12.59;75.12;99901.50;8833954;32;20206;-71
2021/05/12 17:27:00;;;;;;;13.70;9.88;;;;;;;13.00;76.60;99904.69;8850661;32;20388;-71
2021/05/12 17:32:05;;;;;;;16.13;11.05;;;;;;;13.34;76.28;99898.63;8893704;32;20505;-71
2021/05/12 17:37:08;;;;;;;14.35;9.50;;;;;;;13.58;76.15;99892.63;8894218;32;20453;-71
2021/05/12 17:42:11;;;;;;;11.07;8.93;;;;;;;13.76;75.45;99903.38;8893648;32;20224;-71
2021/05/12 17:47:14;;;;;;;13.97;9.30;;;;;;;13.87;75.46;99892.34;8865645;32;20333;-71
2021/05/12 17:52:17;;;;;;;14.85;10.05;;;;;;;13.89;73.12;99903.00;8833308;32;20182;-71
2021/05/12 17:57:20;;;;;;;17.65;12.07;;;;;;;13.86;73.85;99893.34;8832961;32;20146;-71
2021/05/12 18:02:27;;;;;;;17.92;11.10;;;;;;;13.62;74.58;99918.28;8833105;32;20544;-71
2021/05/12 18:07:30;;;;;;;13.93;10.25;;;;;;;13.38;74.80;99928.84;8861240;32;20280;-71
2021/05/12 18:12:41;;;;;;;12.40;9.80;;;;;;;13.18;75.71;99936.22;8856918;32;20181;-71
2021/05/12 18:17:44;;;;;;;17.63;10.93;;;;;;;13.28;77.05;99937.00;8837803;32;20190;-71
2021/05/12 18:22:48;;;;;;;15.13;11.45;;;;;;;13.39;77.90;99935.97;8845339;32;20646;-71
2021/05/12 18:27:50;;;;;;;15.27;11.32;;;;;;;13.25;77.12;99931.91;8867943;32;20194;-71
2021/05/12 18:32:55;;;;;;;13.80;10.90;;;;;;;13.26;77.73;99925.50;8885343;32;20208;-71
2021/05/12 18:38:01;;;;;;;17.13;11.52;;;;;;;13.09;76.60;99929.03;8892019;32;20429;-71
2021/05/12 18:43:05;;;;;;;15.50;12.15;;;;;;;12.73;77.22;99923.56;8895604;32;20181;-71
2021/05/12 18:48:10;;;;;;;17.75;12.20;;;;;;;12.83;78.69;99922.53;8896182;32;20182;-71
2021/05/12 18:53:13;;;;;;;16.80;11.95;;;;;;;12.90;78.53;99913.81;8895248;32;20331;-71
2021/05/12 18:58:16;;;;;;;18.98;12.32;;;;;;;13.00;79.12;99915.47;8896002;32;20134;-70
2021/05/12 19:03:24;;;;;;;17.63;12.55;;;;;;;13.03;78.64;99922.41;8894777;32;20181;-71
2021/05/12 19:08:35;;;;;;;14.85;11.30;;;;;;;13.07;78.97;99931.03;8892787;32;20153;-70
2021/05/12 19:13:46;;;;;;;14.90;10.23;;;;;;;12.92;78.52;99934.25;8895264;32;21386;-70
2021/05/12 19:24:23;;;;;;;16.52;12.60;;;;;;;12.76;78.83;99937.59;8800091;33;20186;-70
2021/05/12 19:29:46;;;;;;;17.73;12.07;;;;;;;12.69;78.16;99939.16;8834970;33;20436;-70
2021/05/12 19:40:14;;;;;;;18.08;12.77;;;;;;;12.56;77.95;99928.75;8875913;32;20196;-71
2021/05/12 19:45:17;;;;;;;15.43;12.40;;;;;;;12.46;77.83;99943.25;8867999;32;20749;-71
2021/05/12 19:50:20;;;;;;;17.77;13.82;;;;;;;12.39;78.14;99941.13;8894267;32;20197;-71
2021/05/12 19:55:28;;;;;;;19.48;13.80;;;;;;;12.38;78.27;99941.28;8843071;32;20146;-72
2021/05/12 20:00:30;;;;;;;18.80;14.15;;;;;;;12.37;77.97;99939.59;8831279;32;20209;-71
2021/05/12 20:05:40;;;;;;;22.20;15.23;;;;;;;12.33;77.66;99948.97;8793442;32;20160;-71
2021/05/12 20:16:07;;;;;;;22.80;15.05;;;;;;;12.28;77.91;99945.81;8798666;33;20192;-72
2021/05/12 20:21:11;;;;;;;22.27;15.75;;;;;;;12.25;78.28;99946.94;8839646;32;22335;-71
2021/05/12 20:26:14;;;;;;;18.85;14.52;;;;;;;12.29;78.73;99955.66;8850257;32;20250;-71
2021/05/12 20:31:17;;;;;;;21.25;14.20;;;;;;;12.22;78.77;99949.94;8867051;32;20199;-72
2021/05/12 20:41:59;;;;;;;22.58;14.98;;;;;;;11.81;77.70;99954.69;8707905;33;20195;-71
2021/05/12 20:47:04;;;;;;;21.70;15.98;;;;;;;11.62;78.35;99960.06;8849453;32;20220;-71
2021/05/12 20:52:08;;;;;;;22.75;16.77;;;;;;;11.69;79.14;99958.53;8891965;32;20169;-71
2021/05/12 20:57:11;;;;;;;21.85;16.33;;;;;;;11.71;79.24;99954.69;8892238;32;20196;-71
2021/05/12 21:02:14;;;;;;;22.35;15.40;;;;;;;11.49;78.48;99949.59;8878972;32;20214;-71
2021/05/12 21:07:18;;;;;;;24.85;18.60;;;;;;;11.46;78.99;99953.44;8886705;32;20268;-71
2021/05/12 21:12:21;;;;;;;29.02;18.90;;;;;;;11.47;79.39;99948.91;8831692;33;20146;-71
2021/05/12 21:17:23;;;;;;;27.70;19.33;;;;;;;11.56;79.31;99944.50;8832299;33;20186;-71
2021/05/12 21:22:35;;;;;;;28.13;18.98;;;;;;;11.54;79.56;99950.00;8804161;33;20186;-71
2021/05/12 21:27:38;;;;;;;29.08;19.35;;;;;;;11.58;79.57;99951.44;8829090;33;20461;-71
2021/05/12 21:32:41;;;;;;;30.40;19.50;;;;;;;11.61;79.69;99948.47;8824600;33;20489;-72
2021/05/12 21:37:44;;;;;;;26.42;18.63;;;;;;;11.68;79.78;99952.31;8829010;33;20182;-72
2021/05/12 21:42:47;;;;;;;29.80;18.77;;;;;;;11.66;79.48;99932.75;8829895;33;20201;-72
2021/05/12 21:47:49;;;;;;;25.48;18.48;;;;;;;11.68;79.53;99929.91;8835934;33;20185;-72
2021/05/12 21:52:53;;;;;;;27.65;19.83;;;;;;;11.56;78.48;99928.38;8836005;33;20635;-72
2021/05/12 21:57:55;;;;;;;31.48;19.50;;;;;;;11.50;79.37;99927.09;8836295;33;20186;-71
2021/05/12 22:02:58;;;;;;;28.08;19.40;;;;;;;11.54;79.46;99927.66;8835602;33;20162;-71
2021/05/12 22:08:26;;;;;;;28.02;18.42;;;;;;;11.54;79.51;99922.25;8836165;33;20143;-71
2021/05/12 22:24:15;;;;;;;29.55;18.92;;;;;;;11.43;79.58;99910.66;8895822;32;20391;-72
2021/05/12 22:34:38;;;;;;;27.30;18.17;;;;;;;11.52;79.68;99908.09;8895653;32;20138;-72
2021/05/12 22:39:42;;;;;;;29.10;18.15;;;;;;;11.53;79.70;99909.81;8894800;32;20420;-72
2021/05/12 22:44:44;;;;;;;29.88;19.67;;;;;;;11.57;79.37;99906.69;8895068;32;20326;-72
2021/05/12 22:49:47;;;;;;;27.73;19.70;;;;;;;11.52;79.10;99905.41;8894491;32;20197;-71
2021/05/12 22:54:53;;;;;;;30.55;20.95;;;;;;;11.41;79.09;99909.97;8894444;32;20218;-71
2021/05/12 22:59:55;;;;;;;29.80;19.88;;;;;;;11.26;79.34;99909.53;8894519;32;20177;-71
2021/05/12 23:04:58;;;;;;;30.27;19.92;;;;;;;11.26;79.16;99905.97;8894661;32;20177;-72
2021/05/12 23:10:03;;;;;;;27.92;20.02;;;;;;;11.28;79.42;99907.53;8894363;32;20212;-72
2021/05/12 23:15:08;;;;;;;28.80;19.88;;;;;;;11.28;79.15;99907.53;8894465;32;20796;-71
2021/05/12 23:20:12;;;;;;;33.40;19.42;;;;;;;11.25;78.85;99912.38;8893798;32;20216;-72
2021/05/12 23:25:15;;;;;;;30.23;21.02;;;;;;;11.24;78.79;99903.47;8895142;32;20247;-71
2021/05/12 23:30:19;;;;;;;33.50;20.48;;;;;;;11.22;78.62;99899.22;8893647;32;20481;-71
2021/05/12 23:35:22;;;;;;;28.17;19.73;;;;;;;11.20;78.50;99899.34;8894277;32;20302;-71
2021/05/12 23:40:25;;;;;;;31.75;21.10;;;;;;;11.13;78.27;99895.50;8893257;32;20187;-72
2021/05/12 23:45:29;;;;;;;30.65;20.00;;;;;;;11.08;77.93;99895.06;8893395;32;20197;-72
2021/05/12 23:50:31;;;;;;;32.90;19.30;;;;;;;11.02;77.91;99893.75;8892750;32;20217;-72
2021/05/12 23:55:35;;;;;;;29.85;18.45;;;;;;;11.03;77.56;99891.94;8893385;32;20190;-72
